Snoqualmie River: Carnation station

back to: Snoqualmie river
Carnation station Summary - (NOAA Hydrograph: CRNW1)
flood stage: 54.0 ft
Latest reading:
Wed09/19 10:15 am 45.37 ft 800 cfs (steady)
Past 24hr max:
Tue09/18 10:15 am 45.49 ft 1040 cfs
Forecasted crests: (published Tue 09/18/18 02:28 pm)
Sat09/22 11:00 am 46.61 ft 2226 cfs

Carnation station Details

Latest Readings

Last 100 Readings:
Wed09/19 10:15 am 45.37 ft 800 cfs
Wed09/19 10:00 am 45.37 ft 800 cfs
Wed09/19 09:45 am 45.37 ft 800 cfs
Wed09/19 09:30 am 45.37 ft 800 cfs
Wed09/19 09:15 am 45.37 ft 800 cfs
Wed09/19 09:00 am 45.38 ft 818 cfs
Wed09/19 08:45 am 45.38 ft 818 cfs
Wed09/19 08:30 am 45.38 ft 818 cfs
Wed09/19 08:15 am 45.38 ft 818 cfs
Wed09/19 08:00 am 45.38 ft 818 cfs
Wed09/19 07:45 am 45.38 ft 818 cfs
Wed09/19 07:30 am 45.38 ft 818 cfs
Wed09/19 07:15 am 45.38 ft 818 cfs
Wed09/19 07:00 am 45.38 ft 818 cfs
Wed09/19 06:45 am 45.38 ft 818 cfs
Wed09/19 06:30 am 45.38 ft 818 cfs
Wed09/19 06:15 am 45.38 ft 818 cfs
Wed09/19 06:00 am 45.39 ft 837 cfs
Wed09/19 05:45 am 45.39 ft 837 cfs
Wed09/19 05:30 am 45.39 ft 837 cfs
Wed09/19 05:15 am 45.39 ft 837 cfs
Wed09/19 05:00 am 45.39 ft 837 cfs
Wed09/19 04:45 am 45.39 ft 837 cfs
Wed09/19 04:30 am 45.39 ft 837 cfs
Wed09/19 04:15 am 45.39 ft 837 cfs
Wed09/19 04:00 am 45.39 ft 837 cfs
Wed09/19 03:45 am 45.4 ft 855 cfs
Wed09/19 03:30 am 45.4 ft 855 cfs
Wed09/19 03:15 am 45.4 ft 855 cfs
Wed09/19 03:00 am 45.4 ft 855 cfs
Wed09/19 02:45 am 45.4 ft 855 cfs
Wed09/19 02:30 am 45.4 ft 855 cfs
Wed09/19 02:15 am 45.4 ft 855 cfs
Wed09/19 02:00 am 45.4 ft 855 cfs
Wed09/19 01:45 am 45.4 ft 855 cfs
Wed09/19 01:30 am 45.4 ft 855 cfs
Wed09/19 01:15 am 45.4 ft 855 cfs
Wed09/19 01:00 am 45.41 ft 874 cfs
Wed09/19 12:45 am 45.41 ft 874 cfs
Wed09/19 12:30 am 45.41 ft 874 cfs
Wed09/19 12:15 am 45.41 ft 874 cfs
Wed09/19 12:00 am 45.41 ft 874 cfs
Tue09/18 11:45 pm 45.41 ft 874 cfs
Tue09/18 11:30 pm 45.41 ft 874 cfs
Tue09/18 11:15 pm 45.41 ft 874 cfs
Tue09/18 11:00 pm 45.42 ft 893 cfs
Tue09/18 10:45 pm 45.41 ft 874 cfs
Tue09/18 10:30 pm 45.42 ft 893 cfs
Tue09/18 10:15 pm 45.42 ft 893 cfs
Tue09/18 10:00 pm 45.42 ft 893 cfs
Tue09/18 09:45 pm 45.42 ft 893 cfs
Tue09/18 09:30 pm 45.42 ft 893 cfs
Tue09/18 09:15 pm 45.42 ft 893 cfs
Tue09/18 09:00 pm 45.43 ft 912 cfs
Tue09/18 08:45 pm 45.43 ft 912 cfs
Tue09/18 08:30 pm 45.43 ft 912 cfs
Tue09/18 08:15 pm 45.43 ft 912 cfs
Tue09/18 08:00 pm 45.43 ft 912 cfs
Tue09/18 07:45 pm 45.43 ft 912 cfs
Tue09/18 07:30 pm 45.43 ft 912 cfs
Tue09/18 07:15 pm 45.43 ft 912 cfs
Tue09/18 07:00 pm 45.43 ft 912 cfs
Tue09/18 06:45 pm 45.44 ft 932 cfs
Tue09/18 06:30 pm 45.44 ft 932 cfs
Tue09/18 06:15 pm 45.44 ft 932 cfs
Tue09/18 06:00 pm 45.44 ft 932 cfs
Tue09/18 05:45 pm 45.44 ft 932 cfs
Tue09/18 05:30 pm 45.44 ft 932 cfs
Tue09/18 05:15 pm 45.44 ft 932 cfs
Tue09/18 05:00 pm 45.44 ft 932 cfs
Tue09/18 04:45 pm 45.44 ft 932 cfs
Tue09/18 04:30 pm 45.44 ft 932 cfs
Tue09/18 04:15 pm 45.44 ft 932 cfs
Tue09/18 04:00 pm 45.44 ft 932 cfs
Tue09/18 03:45 pm 45.44 ft 932 cfs
Tue09/18 03:30 pm 45.45 ft 952 cfs
Tue09/18 03:15 pm 45.45 ft 952 cfs
Tue09/18 03:00 pm 45.43 ft 912 cfs
Tue09/18 02:45 pm 45.45 ft 952 cfs
Tue09/18 02:30 pm 45.42 ft 893 cfs
Tue09/18 02:15 pm 45.45 ft 952 cfs
Tue09/18 02:00 pm 45.43 ft 912 cfs
Tue09/18 01:45 pm 45.46 ft 972 cfs
Tue09/18 01:30 pm 45.43 ft 912 cfs
Tue09/18 01:15 pm 45.45 ft 952 cfs
Tue09/18 01:00 pm 45.45 ft 952 cfs
Tue09/18 12:45 pm 45.44 ft 932 cfs
Tue09/18 12:30 pm 45.45 ft 952 cfs
Tue09/18 12:15 pm 45.45 ft 952 cfs
Tue09/18 12:00 pm 45.48 ft 1010 cfs
Tue09/18 11:45 am 45.46 ft 972 cfs
Tue09/18 11:30 am 45.47 ft 993 cfs
Tue09/18 11:15 am 45.48 ft 1010 cfs
Tue09/18 11:00 am 45.48 ft 1010 cfs
Tue09/18 10:45 am 45.48 ft 1010 cfs
Tue09/18 10:30 am 45.48 ft 1010 cfs
Tue09/18 10:15 am 45.49 ft 1040 cfs
Tue09/18 10:00 am 45.49 ft 1040 cfs
Tue09/18 09:45 am 45.49 ft 1040 cfs
Tue09/18 09:30 am 45.5 ft 1060 cfs

Latest Forecasts

Currently Forecasted Readings:
Tue09/18 05:00 pm 45.42 ft 342 cfs
Tue09/18 11:00 pm 45.38 ft 310 cfs
Wed09/19 05:00 am 45.36 ft 286 cfs
Wed09/19 11:00 am 45.33 ft 266 cfs
Wed09/19 05:00 pm 45.33 ft 264 cfs
Wed09/19 11:00 pm 45.33 ft 264 cfs
Thu09/20 05:00 am 45.33 ft 264 cfs
Thu09/20 11:00 am 45.33 ft 264 cfs
Thu09/20 05:00 pm 45.33 ft 264 cfs
Thu09/20 11:00 pm 45.37 ft 295 cfs
Fri09/21 05:00 am 45.45 ft 371 cfs
Fri09/21 11:00 am 45.63 ft 597 cfs
Fri09/21 05:00 pm 45.86 ft 995 cfs
Fri09/21 11:00 pm 46.07 ft 1404 cfs
Sat09/22 05:00 am 46.4 ft 1894 cfs
Sat09/22 11:00 am 46.61 ft 2226 cfs
Sat09/22 05:00 pm 46.59 ft 2192 cfs
Sat09/22 11:00 pm 46.38 ft 1861 cfs
Sun09/23 05:00 am 46.07 ft 1396 cfs
Sun09/23 11:00 am 45.88 ft 1034 cfs
Sun09/23 05:00 pm 45.8 ft 866 cfs
Sun09/23 11:00 pm 45.74 ft 770 cfs
Mon09/24 05:00 am 45.7 ft 694 cfs
Mon09/24 11:00 am 45.66 ft 644 cfs
Mon09/24 05:00 pm 45.64 ft 601 cfs
Mon09/24 11:00 pm 45.61 ft 568 cfs
Tue09/25 05:00 am 45.59 ft 542 cfs
Tue09/25 11:00 am 45.58 ft 521 cfs
Tue09/25 05:00 pm 45.56 ft 503 cfs
Tue09/25 11:00 pm 45.55 ft 487 cfs
Wed09/26 05:00 am 45.54 ft 473 cfs
Wed09/26 11:00 am 45.53 ft 460 cfs
Wed09/26 05:00 pm 45.52 ft 449 cfs
Wed09/26 11:00 pm 45.51 ft 439 cfs
Thu09/27 05:00 am 45.5 ft 431 cfs
Thu09/27 11:00 am 45.5 ft 423 cfs
Thu09/27 05:00 pm 45.49 ft 416 cfs
Thu09/27 11:00 pm 45.49 ft 411 cfs
Fri09/28 05:00 am 45.5 ft 426 cfs

Snoqualmie River flood gauge data supplied by the
National Weather Service Northwest River Forecast Center.

Sign up for Floodzilla alerts.